EDSB/FKB METAR and TAF weather

Enter ICAO airport designator
Station Type Date Time Source
EDSB METAR 2022/10/01 07:50 UTC NOAA

EDSB 010750Z 20015KT 6000 -RA SCT025 OVC040 11/09 Q1011


Station Type Date Time Source
EDSB Decoded METAR 2022/10/01 07:50 UTC NOAA

Karlsruhe, Baden Wurttemberg, Germany (EDSB) 48-46-43N 008-04-47E
Oct 01, 2022 - 03:50 AM EDT / 2022.10.01 0750 UTC
Wind: from the SSW (200 degrees) at 17 MPH (15 KT):0
Visibility: 3 mile(s):0
Sky conditions: overcast
Weather: light rain
Temperature: 51 F (11 C)
Dew Point: 48 F (9 C)
Relative Humidity: 87%
Pressure (altimeter): 29.85 in. Hg (1011 hPa)
ob: EDSB 010750Z 20015KT 6000 -RA SCT025 OVC040 11/09 Q1011
cycle: 8

Station Type Date Time Source
EDSB TAF 2022/10/01 06:27 UTC NOAA

TAF EDSB 010500Z 0106/0206 20015G25KT 9999 BKN020
TEMPO 0106/0111 20020G35KT RA
TEMPO 0115/0120 24020G35KT 4000 SHRA BKN025CB
BECMG 0115/0118 21012KT
TEMPO 0203/0206 4000 -RADZ

Example: see airport list